createdAt,value
2022-11-01T00:01:19.614Z,76.62
2022-11-01T00:03:47.753Z,76.67
2022-11-01T00:06:16.065Z,76.67
2022-11-01T00:08:44.042Z,76.78
2022-11-01T00:11:15.080Z,76.80
2022-11-01T00:13:46.002Z,76.80
2022-11-01T00:16:15.124Z,76.82
2022-11-01T00:18:43.095Z,76.78
2022-11-01T00:21:12.092Z,76.86
2022-11-01T00:23:40.884Z,76.89
2022-11-01T00:26:14.384Z,76.96
2022-11-01T00:28:42.360Z,76.94
2022-11-01T00:31:12.663Z,76.98
2022-11-01T00:33:41.914Z,76.96
2022-11-01T00:36:10.165Z,76.98
2022-11-01T00:38:38.141Z,77.01
2022-11-01T00:41:07.053Z,77.09
2022-11-01T00:43:36.338Z,77.10
2022-11-01T00:46:04.679Z,77.12
2022-11-01T00:48:33.001Z,77.12
2022-11-01T00:51:01.186Z,77.15
2022-11-01T00:53:29.154Z,77.18
2022-11-01T00:56:05.556Z,77.22
2022-11-01T00:58:34.519Z,77.28
2022-11-01T01:01:03.067Z,77.40
2022-11-01T01:03:31.144Z,77.49
2022-11-01T01:05:59.461Z,77.45
2022-11-01T01:08:28.060Z,77.41
2022-11-01T01:10:56.126Z,77.37
2022-11-01T01:13:24.202Z,77.37
2022-11-01T01:15:52.276Z,77.38
2022-11-01T01:18:20.249Z,77.44
2022-11-01T01:20:48.229Z,77.51
2022-11-01T01:23:16.197Z,77.52
2022-11-01T01:25:44.172Z,77.53
2022-11-01T01:28:12.145Z,77.50
2022-11-01T01:30:41.141Z,77.50
2022-11-01T01:33:10.145Z,77.67
2022-11-01T01:35:39.174Z,77.81
2022-11-01T01:38:07.587Z,77.81
2022-11-01T01:40:35.976Z,77.85
2022-11-01T01:43:03.978Z,77.80
2022-11-01T01:45:36.665Z,77.73
2022-11-01T01:48:14.071Z,78.52
2022-11-01T01:50:46.118Z,78.24
2022-11-01T01:53:21.046Z,78.25
2022-11-01T01:56:07.265Z,78.43
2022-11-01T01:58:47.417Z,78.32
2022-11-01T02:01:15.626Z,78.26
2022-11-01T02:03:44.973Z,78.65
2022-11-01T02:06:18.859Z,78.65
2022-11-01T02:08:51.566Z,78.49
2022-11-01T02:11:20.890Z,78.36
2022-11-01T02:13:49.353Z,78.33
2022-11-01T02:16:26.638Z,78.25
2022-11-01T02:19:06.275Z,78.22
2022-11-01T02:22:02.701Z,78.20
2022-11-01T02:24:42.956Z,78.24
2022-11-01T02:27:10.926Z,78.34
2022-11-01T02:29:50.877Z,78.47
2022-11-01T02:32:24.987Z,78.42
2022-11-01T02:35:06.466Z,78.48
2022-11-01T02:37:42.497Z,78.50
2022-11-01T02:40:18.211Z,78.45
2022-11-01T02:42:52.955Z,78.50
2022-11-01T02:45:34.530Z,78.56
2022-11-01T02:48:04.818Z,78.61
2022-11-01T02:50:45.784Z,78.63
2022-11-01T02:53:14.267Z,78.75
2022-11-01T02:55:42.344Z,78.89
2022-11-01T02:58:15.539Z,78.87
2022-11-01T03:00:43.657Z,78.79
2022-11-01T03:03:27.987Z,78.82
2022-11-01T03:06:05.358Z,78.97
2022-11-01T03:08:36.088Z,78.88
2022-11-01T03:11:14.729Z,78.99
2022-11-01T03:14:01.443Z,78.92
2022-11-01T03:16:35.447Z,78.85
2022-11-01T03:19:38.929Z,78.85
2022-11-01T03:22:22.324Z,78.86
2022-11-01T03:24:53.470Z,78.81
2022-11-01T03:27:30.243Z,78.79
2022-11-01T03:30:06.634Z,78.84
2022-11-01T03:32:45.538Z,78.78
2022-11-01T03:35:21.499Z,78.86
2022-11-01T03:37:53.888Z,78.86
2022-11-01T03:40:24.908Z,78.96
2022-11-01T03:42:54.931Z,78.98
2022-11-01T03:45:25.653Z,79.06
2022-11-01T03:47:54.053Z,79.03
2022-11-01T03:50:26.013Z,79.06
2022-11-01T03:52:54.402Z,79.03
2022-11-01T03:55:22.676Z,79.08
2022-11-01T03:57:56.161Z,79.19
2022-11-01T04:00:28.548Z,79.13
2022-11-01T04:02:57.965Z,79.19
2022-11-01T04:05:28.407Z,79.20
2022-11-01T04:07:56.680Z,79.31
2022-11-01T04:10:26.787Z,79.28
2022-11-01T04:12:55.680Z,79.25
2022-11-01T04:15:25.599Z,79.24
2022-11-01T04:18:03.804Z,79.26
2022-11-01T04:20:32.570Z,79.30
2022-11-01T04:23:06.701Z,79.34
2022-11-01T04:25:35.195Z,79.38
2022-11-01T04:28:03.273Z,79.59
2022-11-01T04:30:31.348Z,79.63
2022-11-01T04:32:59.496Z,79.67
2022-11-01T04:35:28.019Z,79.91
2022-11-01T04:37:57.323Z,80.05
2022-11-01T04:40:26.650Z,79.89
2022-11-01T04:42:54.696Z,80.01
2022-11-01T04:45:22.771Z,80.08
2022-11-01T04:48:02.067Z,79.99
2022-11-01T04:50:30.796Z,79.87
2022-11-01T04:52:59.793Z,79.73
2022-11-01T04:55:28.687Z,79.76
2022-11-01T04:57:57.465Z,79.65
2022-11-01T05:00:26.189Z,79.60
2022-11-01T05:03:05.763Z,79.59
2022-11-01T05:05:35.430Z,79.53
2022-11-01T05:08:14.140Z,79.49
2022-11-01T05:10:44.874Z,79.47
2022-11-01T05:13:13.773Z,79.48
2022-11-01T05:15:53.581Z,79.48
2022-11-01T05:18:30.304Z,79.42
2022-11-01T05:20:58.363Z,79.47
2022-11-01T05:23:26.336Z,79.59
2022-11-01T05:25:54.411Z,79.74
2022-11-01T05:28:22.438Z,79.77
2022-11-01T05:30:50.348Z,79.90
2022-11-01T05:33:18.564Z,79.98
2022-11-01T05:35:46.613Z,80.08
2022-11-01T05:38:15.101Z,80.05
2022-11-01T05:40:43.310Z,80.32
2022-11-01T05:43:11.249Z,80.24
2022-11-01T05:45:39.634Z,80.28
2022-11-01T05:48:07.914Z,80.22
2022-11-01T05:50:35.895Z,80.20
2022-11-01T05:53:08.470Z,80.40
2022-11-01T05:55:36.953Z,80.22
2022-11-01T05:58:06.063Z,80.31
2022-11-01T06:00:36.381Z,80.12
2022-11-01T06:03:05.333Z,80.00
2022-11-01T06:05:34.167Z,79.95
2022-11-01T06:08:02.962Z,79.92
2022-11-01T06:10:32.499Z,79.90
2022-11-01T06:13:00.899Z,79.89
2022-11-01T06:15:29.234Z,79.87
2022-11-01T06:17:58.698Z,79.87
2022-11-01T06:20:29.378Z,79.81
2022-11-01T06:22:58.683Z,79.80
2022-11-01T06:25:28.097Z,79.77
2022-11-01T06:27:56.166Z,79.74
2022-11-01T06:30:24.138Z,79.76
2022-11-01T06:32:52.076Z,79.77
2022-11-01T06:35:20.392Z,79.78
2022-11-01T06:37:48.672Z,79.69
2022-11-01T06:40:16.884Z,79.80
2022-11-01T06:42:46.293Z,79.76
2022-11-01T06:45:15.253Z,79.75
2022-11-01T06:47:47.437Z,79.73
2022-11-01T06:50:15.608Z,79.60
2022-11-01T06:52:43.681Z,79.62
2022-11-01T06:55:11.754Z,79.68
2022-11-01T06:57:39.832Z,79.58
2022-11-01T07:00:08.967Z,79.55
2022-11-01T07:02:37.364Z,79.64
2022-11-01T07:05:06.107Z,79.63
2022-11-01T07:07:34.201Z,79.64
2022-11-01T07:10:02.155Z,79.54
2022-11-01T07:12:30.126Z,79.47
2022-11-01T07:14:58.077Z,79.40
2022-11-01T07:17:27.201Z,79.21
2022-11-01T07:19:55.278Z,79.23
2022-11-01T07:22:23.251Z,79.18
2022-11-01T07:24:51.263Z,79.21
2022-11-01T07:27:20.755Z,79.16
2022-11-01T07:29:48.914Z,79.12
2022-11-01T07:32:17.090Z,78.95
2022-11-01T07:34:45.368Z,78.75
2022-11-01T07:37:13.356Z,78.46
2022-11-01T07:39:41.725Z,78.18
2022-11-01T07:42:09.707Z,77.82
2022-11-01T07:44:37.676Z,77.40
2022-11-01T07:47:05.864Z,76.69
2022-11-01T07:49:33.840Z,75.86
2022-11-01T07:52:02.977Z,75.65
2022-11-01T07:54:31.022Z,75.22
2022-11-01T07:56:59.084Z,74.40
2022-11-01T07:59:27.154Z,73.48
2022-11-01T08:01:55.316Z,72.94
2022-11-01T08:04:23.409Z,72.73
2022-11-01T08:06:52.325Z,72.14
2022-11-01T08:09:20.894Z,72.04
2022-11-01T08:11:48.796Z,70.66
2022-11-01T08:14:16.848Z,69.76
2022-11-01T08:16:48.906Z,68.72
2022-11-01T08:19:16.877Z,67.76
2022-11-01T08:21:44.752Z,67.45
2022-11-01T08:24:13.133Z,66.01
2022-11-01T08:26:41.005Z,64.88
2022-11-01T08:29:09.181Z,64.47
2022-11-01T08:31:43.422Z,63.96
2022-11-01T08:34:15.902Z,63.32
2022-11-01T08:36:44.769Z,62.90
2022-11-01T08:39:13.940Z,62.43
2022-11-01T08:41:42.560Z,62.04
2022-11-01T08:44:10.739Z,61.95
2022-11-01T08:46:38.710Z,61.70
2022-11-01T08:49:06.686Z,61.18
2022-11-01T08:51:34.763Z,61.15
2022-11-01T08:54:02.839Z,60.68
2022-11-01T08:56:31.530Z,60.50
2022-11-01T08:59:00.527Z,60.00
2022-11-01T09:01:28.565Z,59.62
2022-11-01T09:03:57.288Z,58.99
2022-11-01T09:06:26.365Z,59.06
2022-11-01T09:08:55.794Z,58.94
2022-11-01T09:11:25.508Z,59.34
2022-11-01T09:13:53.481Z,58.89
2022-11-01T09:16:21.556Z,59.63
2022-11-01T09:18:50.045Z,60.39
2022-11-01T09:21:18.322Z,61.10
2022-11-01T09:23:46.474Z,61.17
2022-11-01T09:26:14.351Z,60.64
2022-11-01T09:28:42.883Z,60.58
2022-11-01T09:31:20.843Z,60.66
2022-11-01T09:33:49.535Z,60.77
2022-11-01T09:36:17.481Z,60.87
2022-11-01T09:38:45.292Z,61.01
2022-11-01T09:41:38.442Z,61.12
2022-11-01T09:44:13.784Z,60.74
2022-11-01T09:46:48.444Z,60.61
2022-11-01T09:49:22.755Z,60.11
2022-11-01T09:51:51.414Z,59.65
2022-11-01T09:54:22.767Z,59.26
2022-11-01T09:57:00.320Z,59.00
2022-11-01T09:59:50.953Z,58.73
2022-11-01T10:02:40.718Z,58.75
2022-11-01T10:05:27.728Z,58.24
2022-11-01T10:08:14.546Z,58.05
2022-11-01T10:11:01.231Z,57.95
2022-11-01T10:13:49.990Z,57.76
2022-11-01T10:16:35.559Z,57.77
2022-11-01T10:19:15.501Z,57.50
2022-11-01T10:21:56.334Z,57.28
2022-11-01T10:24:42.162Z,57.59
2022-11-01T10:27:22.700Z,57.55
2022-11-01T10:30:15.547Z,57.00
2022-11-01T10:32:50.104Z,57.21
2022-11-01T10:35:37.898Z,56.90
2022-11-01T10:38:54.146Z,56.71
2022-11-01T10:41:28.081Z,56.14
2022-11-01T10:44:02.321Z,55.87
2022-11-01T10:46:38.400Z,55.54
2022-11-01T10:49:16.658Z,55.46
2022-11-01T10:51:46.689Z,55.23
2022-11-01T10:54:19.980Z,55.38
2022-11-01T10:56:52.970Z,55.37
2022-11-01T10:59:42.999Z,55.00
2022-11-01T11:02:24.490Z,54.75
2022-11-01T11:04:52.709Z,54.76
2022-11-01T11:07:30.608Z,54.26
2022-11-01T11:12:36.380Z,54.02
2022-11-01T11:15:16.894Z,53.95
2022-11-01T11:17:46.857Z,53.19
2022-11-01T11:20:21.774Z,53.07
2022-11-01T11:22:50.087Z,52.75
2022-11-01T11:25:20.843Z,52.12
2022-11-01T11:27:51.819Z,50.81
2022-11-01T11:30:34.251Z,50.32
2022-11-01T11:33:03.246Z,50.61
2022-11-01T11:35:33.239Z,51.06
2022-11-01T11:38:05.663Z,50.65
2022-11-01T11:40:40.266Z,50.59
2022-11-01T11:43:31.055Z,50.70
2022-11-01T11:46:17.262Z,50.97
2022-11-01T11:48:59.347Z,50.91
2022-11-01T11:51:34.519Z,51.23
2022-11-01T11:54:29.415Z,51.76
2022-11-01T11:57:26.463Z,52.29
2022-11-01T12:00:06.565Z,52.70
2022-11-01T12:02:38.144Z,52.93
2022-11-01T12:05:09.104Z,52.71
2022-11-01T12:07:46.680Z,52.83
2022-11-01T12:10:46.342Z,53.05
2022-11-01T12:13:34.276Z,53.04
2022-11-01T12:16:21.088Z,52.94
2022-11-01T12:18:57.684Z,52.89
2022-11-01T12:21:34.542Z,53.04
2022-11-01T12:24:02.301Z,53.47
2022-11-01T12:26:35.118Z,53.85
2022-11-01T12:29:26.590Z,53.60
2022-11-01T12:32:00.904Z,53.53
2022-11-01T12:34:36.004Z,53.46
2022-11-01T12:37:20.695Z,53.32
2022-11-01T12:40:07.618Z,53.21
2022-11-01T12:42:51.026Z,53.29
2022-11-01T12:45:28.617Z,53.34
2022-11-01T12:48:38.446Z,53.10
2022-11-01T12:51:32.311Z,53.04
2022-11-01T12:54:05.606Z,52.51
2022-11-01T12:56:33.680Z,52.09
2022-11-01T12:59:01.756Z,52.43
2022-11-01T13:01:43.347Z,53.02
2022-11-01T13:04:32.664Z,53.08
2022-11-01T13:07:06.717Z,52.86
2022-11-01T13:10:08.356Z,52.90
2022-11-01T13:12:56.899Z,53.28
2022-11-01T13:15:44.960Z,53.50
2022-11-01T13:18:40.840Z,53.17
2022-11-01T13:21:13.439Z,53.20
2022-11-01T13:23:50.502Z,53.15
2022-11-01T13:26:26.181Z,53.39
2022-11-01T13:29:16.740Z,53.15
2022-11-01T13:31:44.608Z,53.50
2022-11-01T13:34:30.699Z,53.46
2022-11-01T13:37:19.401Z,53.31
2022-11-01T13:40:31.423Z,53.40
2022-11-01T13:43:08.198Z,53.21
2022-11-01T13:45:48.451Z,52.92
2022-11-01T13:48:53.783Z,52.32
2022-11-01T13:51:45.384Z,52.28
2022-11-01T13:54:37.111Z,52.33
2022-11-01T13:57:08.244Z,52.37
2022-11-01T13:59:39.185Z,52.49
2022-11-01T14:02:25.881Z,52.60
2022-11-01T14:05:00.922Z,52.63
2022-11-01T14:07:39.742Z,52.96
2022-11-01T14:10:20.106Z,53.20
2022-11-01T14:12:57.291Z,53.52
2022-11-01T14:15:28.304Z,53.82
2022-11-01T14:18:08.989Z,54.17
2022-11-01T14:20:45.506Z,54.50
2022-11-01T14:23:28.580Z,54.82
2022-11-01T14:26:19.391Z,55.32
2022-11-01T14:28:55.944Z,55.73
2022-11-01T14:31:27.667Z,56.20
2022-11-01T14:34:00.112Z,56.52
2022-11-01T14:36:34.204Z,56.87
2022-11-01T14:39:21.382Z,57.07
2022-11-01T14:41:56.144Z,57.44
2022-11-01T14:44:39.927Z,57.74
2022-11-01T14:47:21.954Z,57.95
2022-11-01T14:49:54.636Z,58.12
2022-11-01T14:52:35.302Z,58.62
2022-11-01T14:55:13.387Z,58.96
2022-11-01T14:57:41.892Z,59.27
2022-11-01T15:00:31.160Z,59.57
2022-11-01T15:03:01.061Z,59.56
2022-11-01T15:05:29.091Z,59.80
2022-11-01T15:07:58.757Z,59.98
2022-11-01T15:10:27.441Z,60.01
2022-11-01T15:12:55.429Z,60.05
2022-11-01T15:15:26.577Z,60.21
2022-11-01T15:18:14.853Z,60.33
2022-11-01T15:20:49.498Z,60.46
2022-11-01T15:23:28.359Z,60.62
2022-11-01T15:25:59.803Z,60.78
2022-11-01T15:28:45.788Z,60.99
2022-11-01T15:31:14.071Z,61.22
2022-11-01T15:33:59.026Z,61.46
2022-11-01T15:36:36.208Z,61.71
2022-11-01T15:39:23.026Z,61.92
2022-11-01T15:41:51.808Z,62.12
2022-11-01T15:44:19.897Z,62.36
2022-11-01T15:46:49.185Z,62.54
2022-11-01T15:49:31.263Z,62.70
2022-11-01T15:52:22.806Z,62.87
2022-11-01T15:55:21.244Z,63.06
2022-11-01T15:58:12.157Z,63.26
2022-11-01T16:00:46.986Z,63.37
2022-11-01T16:03:44.044Z,63.64
2022-11-01T16:06:21.895Z,64.18
2022-11-01T16:08:58.491Z,64.47
2022-11-01T16:11:30.849Z,64.65
2022-11-01T16:14:06.537Z,64.83
2022-11-01T16:17:01.783Z,65.14
2022-11-01T16:19:44.624Z,65.38
2022-11-01T16:22:36.341Z,65.69
2022-11-01T16:25:07.074Z,66.09
2022-11-01T16:27:35.051Z,66.26
2022-11-01T16:30:03.747Z,66.73
2022-11-01T16:32:32.016Z,66.89
2022-11-01T16:35:00.358Z,67.08
2022-11-01T16:37:29.916Z,67.10
2022-11-01T16:39:57.889Z,67.25
2022-11-01T16:42:25.756Z,67.50
2022-11-01T16:44:57.343Z,67.67
2022-11-01T16:47:26.010Z,67.85
2022-11-01T16:49:54.406Z,68.06
2022-11-01T16:52:23.131Z,68.27
2022-11-01T16:54:51.354Z,68.30
2022-11-01T16:57:27.616Z,68.52
2022-11-01T16:59:56.320Z,68.73
2022-11-01T17:02:30.096Z,69.08
2022-11-01T17:05:19.638Z,69.20
2022-11-01T17:07:47.665Z,69.31
2022-11-01T17:10:16.854Z,69.48
2022-11-01T17:12:45.034Z,69.63
2022-11-01T17:15:14.550Z,69.89
2022-11-01T17:17:45.782Z,70.12
2022-11-01T17:20:25.021Z,70.92
2022-11-01T17:22:55.454Z,70.78
2022-11-01T17:25:28.259Z,70.94
2022-11-01T17:27:56.927Z,70.92
2022-11-01T17:30:24.897Z,70.98
2022-11-01T17:32:52.972Z,71.20
2022-11-01T17:35:24.264Z,71.43
2022-11-01T17:37:55.880Z,71.63
2022-11-01T17:40:24.807Z,71.72
2022-11-01T17:42:53.959Z,71.82
2022-11-01T17:45:38.629Z,72.04
2022-11-01T17:48:06.862Z,72.19
2022-11-01T17:50:34.985Z,72.35
2022-11-01T17:53:03.823Z,72.57
2022-11-01T17:55:35.947Z,72.68
2022-11-01T17:58:05.357Z,72.64
2022-11-01T18:00:34.148Z,72.65
2022-11-01T18:03:02.225Z,72.66
2022-11-01T18:05:30.502Z,72.68
2022-11-01T18:08:00.118Z,72.44
2022-11-01T18:10:43.050Z,72.84
2022-11-01T18:14:08.616Z,72.75
2022-11-01T18:16:42.118Z,72.76
2022-11-01T18:19:23.179Z,72.50
2022-11-01T18:22:13.464Z,72.59
2022-11-01T18:24:46.465Z,72.60
2022-11-01T18:27:33.248Z,72.54
2022-11-01T18:30:11.467Z,72.28
2022-11-01T18:32:48.036Z,72.81
2022-11-01T18:35:32.435Z,72.69
2022-11-01T18:38:13.219Z,72.32
2022-11-01T18:40:57.707Z,72.49
2022-11-01T18:43:34.582Z,71.99
2022-11-01T18:46:25.829Z,72.11
2022-11-01T18:49:00.783Z,72.28
2022-11-01T18:51:32.195Z,72.40
2022-11-01T18:54:09.286Z,72.61
2022-11-01T18:56:37.836Z,72.79
2022-11-01T18:59:27.592Z,72.51
2022-11-01T19:02:00.473Z,72.86
2022-11-01T19:04:32.863Z,72.37
2022-11-01T19:07:15.678Z,72.75
2022-11-01T19:09:52.424Z,72.70
2022-11-01T19:12:26.955Z,72.04
2022-11-01T19:14:59.903Z,72.46
2022-11-01T19:17:33.258Z,72.58
2022-11-01T19:20:01.434Z,72.58
2022-11-01T19:22:36.164Z,72.49
2022-11-01T19:25:19.590Z,72.50
2022-11-01T19:27:49.615Z,71.78
2022-11-01T19:30:26.107Z,72.29
2022-11-01T19:32:56.950Z,72.25
2022-11-01T19:35:24.892Z,72.16
2022-11-01T19:37:55.085Z,72.24
2022-11-01T19:40:33.424Z,72.41
2022-11-01T19:43:12.772Z,72.35
2022-11-01T19:45:47.425Z,72.40
2022-11-01T19:48:35.721Z,72.61
2022-11-01T19:51:22.420Z,72.45
2022-11-01T19:53:52.849Z,72.40
2022-11-01T19:56:26.072Z,72.67
2022-11-01T19:58:56.737Z,72.88
2022-11-01T20:01:36.571Z,72.83
2022-11-01T20:04:29.461Z,72.76
2022-11-01T20:07:01.224Z,72.69
2022-11-01T20:09:31.568Z,72.64
2022-11-01T20:11:59.524Z,72.75
2022-11-01T20:14:27.502Z,72.87
2022-11-01T20:16:55.886Z,72.83
2022-11-01T20:19:23.856Z,72.87
2022-11-01T20:21:52.240Z,72.97
2022-11-01T20:24:20.517Z,72.87
2022-11-01T20:26:48.900Z,72.69
2022-11-01T20:29:16.876Z,72.76
2022-11-01T20:31:45.054Z,72.77
2022-11-01T20:34:12.924Z,72.95
2022-11-01T20:36:40.963Z,72.77
2022-11-01T20:39:11.689Z,72.94
2022-11-01T20:41:42.785Z,73.08
2022-11-01T20:44:10.862Z,72.94
2022-11-01T20:46:38.933Z,73.04
2022-11-01T20:49:06.906Z,72.75
2022-11-01T20:51:35.288Z,72.92
2022-11-01T20:54:03.262Z,73.01
2022-11-01T20:56:31.547Z,72.79
2022-11-01T21:01:28.174Z,72.78
2022-11-01T21:03:57.106Z,72.66
2022-11-01T21:06:28.522Z,72.70
2022-11-01T21:08:57.653Z,72.86
2022-11-01T21:11:31.361Z,72.82
2022-11-01T21:13:59.434Z,72.60
2022-11-01T21:16:31.398Z,72.36
2022-11-01T21:19:03.430Z,72.40
2022-11-01T21:21:33.847Z,72.32
2022-11-01T21:24:21.160Z,72.22
2022-11-01T21:26:52.100Z,72.33
2022-11-01T21:29:32.840Z,72.35
2022-11-01T21:32:02.732Z,72.06
2022-11-01T21:34:31.422Z,71.97
2022-11-01T21:36:59.549Z,72.02
2022-11-01T21:39:29.727Z,72.07
2022-11-01T21:42:00.775Z,72.05
2022-11-01T21:44:42.378Z,72.10
2022-11-01T21:47:13.431Z,71.87
2022-11-01T21:49:41.492Z,71.99
2022-11-01T21:54:43.868Z,71.46
2022-11-01T21:57:12.867Z,71.32
2022-11-01T21:59:41.869Z,70.83
2022-11-01T22:02:12.307Z,71.17
2022-11-01T22:04:41.002Z,70.48
2022-11-01T22:07:09.774Z,70.49
2022-11-01T22:09:38.463Z,70.40
2022-11-01T22:12:07.348Z,70.26
2022-11-01T22:14:35.561Z,70.18
2022-11-01T22:17:03.713Z,70.07
2022-11-01T22:19:32.198Z,69.30
2022-11-01T22:22:00.181Z,69.04
2022-11-01T22:24:28.147Z,69.74
2022-11-01T22:26:56.246Z,69.65
2022-11-01T22:29:24.197Z,68.97
2022-11-01T22:31:52.269Z,69.24
2022-11-01T22:34:20.245Z,69.48
2022-11-01T22:36:48.711Z,69.38
2022-11-01T22:39:25.553Z,68.94
2022-11-01T22:41:54.722Z,69.27
2022-11-01T22:44:27.656Z,69.13
2022-11-01T22:46:59.215Z,68.98
2022-11-01T22:49:42.239Z,68.95
2022-11-01T22:52:34.849Z,68.96
2022-11-01T22:55:12.290Z,68.81
2022-11-01T22:57:44.774Z,68.67
2022-11-01T23:00:35.871Z,68.66
2022-11-01T23:03:38.445Z,68.44
2022-11-01T23:06:33.431Z,68.59
2022-11-01T23:09:13.217Z,68.76
2022-11-01T23:11:45.028Z,68.51
2022-11-01T23:14:28.554Z,68.61
2022-11-01T23:16:58.293Z,68.41
2022-11-01T23:19:26.645Z,68.49
2022-11-01T23:21:54.737Z,68.54
2022-11-01T23:24:22.908Z,67.97
2022-11-01T23:26:50.949Z,68.12
2022-11-01T23:29:18.958Z,67.94
2022-11-01T23:31:47.649Z,68.29
2022-11-01T23:34:15.729Z,68.40
2022-11-01T23:36:44.101Z,68.18
2022-11-01T23:39:13.796Z,68.00
2022-11-01T23:41:45.370Z,67.93
2022-11-01T23:44:19.277Z,68.02
2022-11-01T23:46:47.456Z,68.11
2022-11-01T23:49:25.255Z,67.97
2022-11-01T23:51:53.371Z,67.85
2022-11-01T23:54:32.662Z,67.73
2022-11-01T23:57:01.160Z,67.73
2022-11-01T23:59:29.225Z,67.63
